Hanjin Madrid — DHQS — position and weather

sailwx.info

Track history (hours):
 
Tides and Currents Weather Stations Pressure Air Temp Water Temp Dewpoint Dewpoint Depression Visibility Wind Speed Wind Dir Waves Ship Positions

Hanjin Madrid

Last reported at 2014-Aug-06 23:33 UTC. Time now 2014-Aug-20 06:51 UTC.
Position N 31°01' E 032°19'.
Warning: this ship's position is 13 days out of date.

Length 278.9 m; beam 40.3 m; draft 14 m.

Type: Ship. MMSI: 211424430.

Date/timePositionNaut miles runAvg speedWind from/ knotsBaromVisibWave heightAir tempDewpointWater temp
2014-Aug-06 23:33N 31°01' E 032°19'10 9.0
2014-Aug-06 22:28N 31°10' E 032°20'9 8.5
2014-Aug-06 21:21N 31°19' E 032°22'7 2.3
2014-Aug-06 18:30N 31°25' E 032°18'0 0.0
2014-Aug-06 17:27N 31°25' E 032°18'0 0.0
2014-Aug-06 16:33N 31°25' E 032°18'0 0.0
2014-Aug-06 15:33N 31°25' E 032°18'16 8.2
2014-Aug-06 13:33N 31°37' E 032°05'8912.7
2014-Aug-06 06:34N 32°11' E 030°28'1717.0
2014-Aug-06 05:33N 32°16' E 030°09'14215.0
2014-Aug-05 20:05N 32°59' E 027°28'1214.5
2014-Aug-05 19:16N 33°02' E 027°14'78515.7
2014-Aug-03 17:14N 36°59' E 012°00'8815.4
2014-Aug-03 11:32N 37°32' E 010°18'2115.2
2014-Aug-03 10:10N 37°31' E 009°52'19616.3
2014-Aug-02 22:08N 37°17' E 005°46'1215.6
2014-Aug-02 21:21N 37°15' E 005°30'9715.7
2014-Aug-02 15:13N 37°01' E 003°31'1115.7
2014-Aug-02 14:33N 36°60' E 003°17'1916.4
2014-Aug-02 13:22N 36°57' E 002°54'1315.7
2014-Aug-02 12:31N 36°55' E 002°37'1615.8
2014-Aug-02 11:31N 36°53' E 002°18'20416.7
2014-Aug-01 23:17N 36°23' W 001°54'1216.0
2014-Aug-01 22:33N 36°22' W 002°08'1616.0
2014-Aug-01 21:31N 36°19' W 002°28'14416.1
2014-Aug-01 12:33N 35°57' W 005°25'15816.7
2014-Aug-01 03:06N 36°10' W 008°40'1316.2
2014-Aug-01 02:19N 36°14' W 008°55'1516.2
2014-Aug-01 01:24N 36°18' W 009°12'1416.3
2014-Aug-01 00:33N 36°22' W 009°29'1615.9
2014-Jul-31 23:33N 36°27' W 009°48'1616.6
2014-Jul-31 22:33N 36°32' W 010°07'1716.5
2014-Jul-31 21:30N 36°37' W 010°28'2316.4
2014-Jul-31 20:06N 36°44' W 010°55'1216.8
2014-Jul-31 19:23N 36°48' W 011°10'1616.7
2014-Jul-31 18:25N 36°53' W 011°29'1816.7
2014-Jul-31 17:18N 36°58' W 011°51'1316.7
2014-Jul-31 16:33N 37°02' W 012°06'55716.6
2014-Jul-30 07:03N 39°08' W 023°35'7916.6
2014-Jul-30 02:18N 39°21' W 025°16'1916.2
2014-Jul-30 01:09N 39°23' W 025°40'6516.5
2014-Jul-29 21:13N 39°32' W 027°03'1015.8
2014-Jul-29 20:34N 39°33' W 027°16'1616.4
2014-Jul-29 19:33N 39°35' W 027°38'1716.6
2014-Jul-29 18:33N 39°37' W 027°59'1616.2
2014-Jul-29 17:34N 39°39' W 028°20'1616.3
2014-Jul-29 16:34N 39°41' W 028°41'1616.0
2014-Jul-29 15:34N 39°43' W 029°02'1616.3
2014-Jul-29 14:34N 39°45' W 029°23'2116.8
2014-Jul-29 13:19N 39°47' W 029°50'1316.9
2014-Jul-29 12:33N 39°48' W 030°06'  
Track history (hours):
 
Tides and Currents Weather Stations Pressure Air Temp Water Temp Dewpoint Dewpoint Depression Visibility Wind Speed Wind Dir Waves Ship Positions

Hanjin Madrid

Last reported at 2014-Aug-06 23:33 UTC. Time now 2014-Aug-20 06:51 UTC.
Position N 31°01' E 032°19'.
Warning: this ship's position is 13 days out of date.

Length 278.9 m; beam 40.3 m; draft 14 m.

Type: Ship. MMSI: 211424430.

Date/timePositionNaut miles runAvg speedWind from/ knotsBaromVisibWave heightAir tempDewpointWater temp
2014-Aug-06 23:33N 31°01' E 032°19'10 9.0
2014-Aug-06 22:28N 31°10' E 032°20'9 8.5
2014-Aug-06 21:21N 31°19' E 032°22'7 2.3
2014-Aug-06 18:30N 31°25' E 032°18'0 0.0
2014-Aug-06 17:27N 31°25' E 032°18'0 0.0
2014-Aug-06 16:33N 31°25' E 032°18'0 0.0
2014-Aug-06 15:33N 31°25' E 032°18'16 8.2
2014-Aug-06 13:33N 31°37' E 032°05'8912.7
2014-Aug-06 06:34N 32°11' E 030°28'1717.0
2014-Aug-06 05:33N 32°16' E 030°09'14215.0
2014-Aug-05 20:05N 32°59' E 027°28'1214.5
2014-Aug-05 19:16N 33°02' E 027°14'78515.7
2014-Aug-03 17:14N 36°59' E 012°00'8815.4
2014-Aug-03 11:32N 37°32' E 010°18'2115.2
2014-Aug-03 10:10N 37°31' E 009°52'19616.3
2014-Aug-02 22:08N 37°17' E 005°46'1215.6
2014-Aug-02 21:21N 37°15' E 005°30'9715.7
2014-Aug-02 15:13N 37°01' E 003°31'1115.7
2014-Aug-02 14:33N 36°60' E 003°17'1916.4
2014-Aug-02 13:22N 36°57' E 002°54'1315.7
2014-Aug-02 12:31N 36°55' E 002°37'1615.8
2014-Aug-02 11:31N 36°53' E 002°18'20416.7
2014-Aug-01 23:17N 36°23' W 001°54'1216.0
2014-Aug-01 22:33N 36°22' W 002°08'1616.0
2014-Aug-01 21:31N 36°19' W 002°28'14416.1
2014-Aug-01 12:33N 35°57' W 005°25'15816.7
2014-Aug-01 03:06N 36°10' W 008°40'1316.2
2014-Aug-01 02:19N 36°14' W 008°55'1516.2
2014-Aug-01 01:24N 36°18' W 009°12'1416.3
2014-Aug-01 00:33N 36°22' W 009°29'1615.9
2014-Jul-31 23:33N 36°27' W 009°48'1616.6
2014-Jul-31 22:33N 36°32' W 010°07'1716.5
2014-Jul-31 21:30N 36°37' W 010°28'2316.4
2014-Jul-31 20:06N 36°44' W 010°55'1216.8
2014-Jul-31 19:23N 36°48' W 011°10'1616.7
2014-Jul-31 18:25N 36°53' W 011°29'1816.7
2014-Jul-31 17:18N 36°58' W 011°51'1316.7
2014-Jul-31 16:33N 37°02' W 012°06'55716.6
2014-Jul-30 07:03N 39°08' W 023°35'7916.6
2014-Jul-30 02:18N 39°21' W 025°16'1916.2
2014-Jul-30 01:09N 39°23' W 025°40'6516.5
2014-Jul-29 21:13N 39°32' W 027°03'1015.8
2014-Jul-29 20:34N 39°33' W 027°16'1616.4
2014-Jul-29 19:33N 39°35' W 027°38'1716.6
2014-Jul-29 18:33N 39°37' W 027°59'1616.2
2014-Jul-29 17:34N 39°39' W 028°20'1616.3
2014-Jul-29 16:34N 39°41' W 028°41'1616.0
2014-Jul-29 15:34N 39°43' W 029°02'1616.3
2014-Jul-29 14:34N 39°45' W 029°23'2116.8
2014-Jul-29 13:19N 39°47' W 029°50'1316.9
2014-Jul-29 12:33N 39°48' W 030°06'  

Dump ship's entire track history